OICK  Khoram Abad Airport

Add Bookmark

Iran

Status IATA
Operational KHD
Latitude Longitude
33° 26' 7" N 48° 16' 58" E
33.435398 48.282902
Local (DST + 5) UTC (GMT + 4)
Oct 22, 2014 03:28 Oct 21, 2014 23:58
Sunrise-Sunset Local UTC
Begin Civil Twilight 06:00 02:30
Sunrise 06:25 02:55
Sunset 05:36 14:06
End Civil Twilight 06:01 14:31

Current Weather

METAR Observed VFR
OICK 212150Z 00000KT 9999 FEW040 09/08 Q1021 Tue, Oct 21, 2014 @ 21:50 UTC
(2 Hours, 8 Minutes ago)
Visual Flight Rules
Wind Visibility Clouds Conditions
Calm 10 km or more
  • Few at 4,000' AGL
  • No significant weather
Temperatures Readings Precipitation
Current Temp 9°C (48°F)
Dewpoint 8°C (46°F)
Humidity 94%
Altimeter 30.15"Hg
Sea Level Pressure 1021mb
Field Elevation 3789.37'
None Recorded

Additional weather within a 92.6km radius of OICK

Map ICAO Location
OICJ 67.2km N (040°)

24 Hour Weather History

Loading
-

24 Hour Weather Graphs

Loading
-

CheckWX.com is intended as a tool to help pilots better visualize weather data. It is not intended as a substitute for an official weather briefing obtained from a Flight Service Station. CheckWX.com does not meet the FAA requirements for an official pre-flight weather briefing. Therefore, it's important that pilots still call and obtain an official FSS pre-flight weather briefing.